sensor_id;sensor_type;location;lat;lon;timestamp;P1;durP1;ratioP1;P2;durP2;ratioP2
41887;SDS011;63122;52.424;13.458;2023-07-30T00:00:57;7.90;;;4.95;;
41887;SDS011;63122;52.424;13.458;2023-07-30T00:03:03;4.95;;;4.45;;
41887;SDS011;63122;52.424;13.458;2023-07-30T00:04:58;9.35;;;4.63;;
41887;SDS011;63122;52.424;13.458;2023-07-30T00:06:51;4.68;;;4.18;;
41887;SDS011;63122;52.424;13.458;2023-07-30T00:08:48;7.78;;;4.38;;
41887;SDS011;63122;52.424;13.458;2023-07-30T00:10:44;5.25;;;4.32;;
41887;SDS011;63122;52.424;13.458;2023-07-30T00:12:39;7.68;;;4.35;;
41887;SDS011;63122;52.424;13.458;2023-07-30T00:14:35;6.85;;;4.32;;
41887;SDS011;63122;52.424;13.458;2023-07-30T00:16:29;5.78;;;4.53;;
41887;SDS011;63122;52.424;13.458;2023-07-30T00:18:24;8.52;;;4.70;;
41887;SDS011;63122;52.424;13.458;2023-07-30T00:20:20;7.53;;;4.40;;
41887;SDS011;63122;52.424;13.458;2023-07-30T00:22:17;8.80;;;4.32;;
41887;SDS011;63122;52.424;13.458;2023-07-30T00:24:17;9.75;;;4.50;;
41887;SDS011;63122;52.424;13.458;2023-07-30T00:26:13;4.55;;;3.80;;
41887;SDS011;63122;52.424;13.458;2023-07-30T00:28:06;7.82;;;4.28;;
41887;SDS011;63122;52.424;13.458;2023-07-30T00:30:01;10.43;;;4.63;;
41887;SDS011;63122;52.424;13.458;2023-07-30T00:32:00;7.82;;;4.28;;
41887;SDS011;63122;52.424;13.458;2023-07-30T00:33:52;8.68;;;4.60;;
41887;SDS011;63122;52.424;13.458;2023-07-30T00:35:50;6.28;;;4.18;;
41887;SDS011;63122;52.424;13.458;2023-07-30T00:37:45;7.47;;;4.45;;
41887;SDS011;63122;52.424;13.458;2023-07-30T00:39:43;8.40;;;4.25;;
41887;SDS011;63122;52.424;13.458;2023-07-30T00:41:39;6.25;;;4.32;;
41887;SDS011;63122;52.424;13.458;2023-07-30T00:43:32;11.98;;;4.45;;
41887;SDS011;63122;52.424;13.458;2023-07-30T00:45:28;10.15;;;4.47;;
41887;SDS011;63122;52.424;13.458;2023-07-30T00:47:24;10.07;;;4.65;;
41887;SDS011;63122;52.424;13.458;2023-07-30T00:49:20;8.85;;;5.10;;
41887;SDS011;63122;52.424;13.458;2023-07-30T00:51:16;8.10;;;4.55;;
41887;SDS011;63122;52.424;13.458;2023-07-30T00:53:13;8.18;;;5.07;;
41887;SDS011;63122;52.424;13.458;2023-07-30T00:55:12;12.27;;;4.93;;
41887;SDS011;63122;52.424;13.458;2023-07-30T00:57:09;11.07;;;4.80;;
41887;SDS011;63122;52.424;13.458;2023-07-30T00:59:05;6.35;;;4.47;;
41887;SDS011;63122;52.424;13.458;2023-07-30T01:01:01;6.22;;;4.18;;
41887;SDS011;63122;52.424;13.458;2023-07-30T01:02:54;6.65;;;4.10;;
41887;SDS011;63122;52.424;13.458;2023-07-30T01:04:50;5.97;;;4.35;;
41887;SDS011;63122;52.424;13.458;2023-07-30T01:06:47;8.43;;;4.65;;
41887;SDS011;63122;52.424;13.458;2023-07-30T01:08:42;8.70;;;4.45;;
41887;SDS011;63122;52.424;13.458;2023-07-30T01:10:41;7.88;;;4.40;;
41887;SDS011;63122;52.424;13.458;2023-07-30T01:12:38;10.25;;;4.47;;
41887;SDS011;63122;52.424;13.458;2023-07-30T01:14:34;7.20;;;4.90;;
41887;SDS011;63122;52.424;13.458;2023-07-30T01:16:30;6.40;;;4.45;;
41887;SDS011;63122;52.424;13.458;2023-07-30T01:18:28;16.08;;;5.20;;
41887;SDS011;63122;52.424;13.458;2023-07-30T01:20:23;8.23;;;4.65;;
41887;SDS011;63122;52.424;13.458;2023-07-30T01:22:19;9.90;;;4.93;;
41887;SDS011;63122;52.424;13.458;2023-07-30T01:24:15;9.88;;;4.82;;
41887;SDS011;63122;52.424;13.458;2023-07-30T01:26:10;10.70;;;4.88;;
41887;SDS011;63122;52.424;13.458;2023-07-30T01:28:14;8.57;;;5.38;;
41887;SDS011;63122;52.424;13.458;2023-07-30T01:30:16;7.10;;;5.22;;
41887;SDS011;63122;52.424;13.458;2023-07-30T01:32:13;8.68;;;5.30;;
41887;SDS011;63122;52.424;13.458;2023-07-30T01:34:10;8.85;;;5.63;;
41887;SDS011;63122;52.424;13.458;2023-07-30T01:36:06;11.93;;;5.10;;
41887;SDS011;63122;52.424;13.458;2023-07-30T01:38:03;7.13;;;4.75;;
41887;SDS011;63122;52.424;13.458;2023-07-30T01:39:59;10.02;;;5.20;;
41887;SDS011;63122;52.424;13.458;2023-07-30T01:41:54;7.93;;;5.13;;
41887;SDS011;63122;52.424;13.458;2023-07-30T01:43:50;10.35;;;5.15;;
41887;SDS011;63122;52.424;13.458;2023-07-30T01:45:42;7.45;;;4.93;;
41887;SDS011;63122;52.424;13.458;2023-07-30T01:47:37;8.57;;;4.85;;
41887;SDS011;63122;52.424;13.458;2023-07-30T01:49:30;8.32;;;4.95;;
41887;SDS011;63122;52.424;13.458;2023-07-30T01:51:27;6.53;;;5.35;;
41887;SDS011;63122;52.424;13.458;2023-07-30T01:53:25;7.55;;;5.40;;
41887;SDS011;63122;52.424;13.458;2023-07-30T01:55:18;6.82;;;5.22;;
41887;SDS011;63122;52.424;13.458;2023-07-30T01:57:16;8.38;;;5.50;;
41887;SDS011;63122;52.424;13.458;2023-07-30T01:59:12;9.20;;;5.13;;
41887;SDS011;63122;52.424;13.458;2023-07-30T02:01:07;9.43;;;5.65;;
41887;SDS011;63122;52.424;13.458;2023-07-30T02:03:03;12.05;;;5.97;;
41887;SDS011;63122;52.424;13.458;2023-07-30T02:04:58;10.85;;;5.45;;
41887;SDS011;63122;52.424;13.458;2023-07-30T02:06:53;15.15;;;6.18;;
41887;SDS011;63122;52.424;13.458;2023-07-30T02:08:51;7.10;;;4.97;;
41887;SDS011;63122;52.424;13.458;2023-07-30T02:10:54;8.80;;;5.25;;
41887;SDS011;63122;52.424;13.458;2023-07-30T02:12:50;10.52;;;4.75;;
41887;SDS011;63122;52.424;13.458;2023-07-30T02:14:45;8.20;;;5.03;;
41887;SDS011;63122;52.424;13.458;2023-07-30T02:16:37;8.80;;;4.63;;
41887;SDS011;63122;52.424;13.458;2023-07-30T02:18:33;6.70;;;5.32;;
41887;SDS011;63122;52.424;13.458;2023-07-30T02:20:25;8.63;;;5.35;;
41887;SDS011;63122;52.424;13.458;2023-07-30T02:22:20;9.18;;;5.20;;
41887;SDS011;63122;52.424;13.458;2023-07-30T02:24:18;7.63;;;5.10;;
41887;SDS011;63122;52.424;13.458;2023-07-30T02:26:13;8.73;;;5.13;;
41887;SDS011;63122;52.424;13.458;2023-07-30T02:28:09;7.20;;;4.95;;
41887;SDS011;63122;52.424;13.458;2023-07-30T02:30:05;6.15;;;4.88;;
41887;SDS011;63122;52.424;13.458;2023-07-30T02:32:01;6.50;;;5.40;;
41887;SDS011;63122;52.424;13.458;2023-07-30T02:33:54;8.65;;;5.30;;
41887;SDS011;63122;52.424;13.458;2023-07-30T02:35:49;6.45;;;5.47;;
41887;SDS011;63122;52.424;13.458;2023-07-30T02:37:45;9.60;;;5.45;;
41887;SDS011;63122;52.424;13.458;2023-07-30T02:39:43;10.75;;;5.40;;
41887;SDS011;63122;52.424;13.458;2023-07-30T02:41:38;8.52;;;5.40;;
41887;SDS011;63122;52.424;13.458;2023-07-30T02:43:33;10.80;;;5.53;;
41887;SDS011;63122;52.424;13.458;2023-07-30T02:45:30;5.85;;;5.20;;
41887;SDS011;63122;52.424;13.458;2023-07-30T02:47:25;19.17;;;6.50;;
41887;SDS011;63122;52.424;13.458;2023-07-30T02:49:17;12.20;;;5.93;;
41887;SDS011;63122;52.424;13.458;2023-07-30T02:51:13;6.30;;;5.70;;
41887;SDS011;63122;52.424;13.458;2023-07-30T02:53:05;6.30;;;5.65;;
41887;SDS011;63122;52.424;13.458;2023-07-30T02:55:04;12.52;;;5.90;;
41887;SDS011;63122;52.424;13.458;2023-07-30T02:56:59;7.22;;;5.80;;
41887;SDS011;63122;52.424;13.458;2023-07-30T02:58:55;9.52;;;5.90;;
41887;SDS011;63122;52.424;13.458;2023-07-30T03:00:47;11.48;;;6.03;;
41887;SDS011;63122;52.424;13.458;2023-07-30T03:02:42;8.68;;;6.18;;
41887;SDS011;63122;52.424;13.458;2023-07-30T03:04:38;9.70;;;6.07;;
41887;SDS011;63122;52.424;13.458;2023-07-30T03:06:33;8.05;;;6.30;;
41887;SDS011;63122;52.424;13.458;2023-07-30T03:08:28;7.90;;;6.18;;
41887;SDS011;63122;52.424;13.458;2023-07-30T03:10:26;9.40;;;6.43;;
41887;SDS011;63122;52.424;13.458;2023-07-30T03:12:21;7.20;;;6.25;;
41887;SDS011;63122;52.424;13.458;2023-07-30T03:14:14;13.65;;;6.35;;
41887;SDS011;63122;52.424;13.458;2023-07-30T03:16:12;9.45;;;6.80;;
41887;SDS011;63122;52.424;13.458;2023-07-30T03:18:07;9.35;;;7.13;;
41887;SDS011;63122;52.424;13.458;2023-07-30T03:20:03;6.85;;;6.15;;
41887;SDS011;63122;52.424;13.458;2023-07-30T03:21:59;6.97;;;6.05;;
41887;SDS011;63122;52.424;13.458;2023-07-30T03:23:54;11.60;;;5.90;;
41887;SDS011;63122;52.424;13.458;2023-07-30T03:25:49;7.25;;;6.10;;
41887;SDS011;63122;52.424;13.458;2023-07-30T03:27:45;8.52;;;6.00;;
41887;SDS011;63122;52.424;13.458;2023-07-30T03:29:40;7.60;;;6.13;;
41887;SDS011;63122;52.424;13.458;2023-07-30T03:31:35;7.65;;;6.25;;
41887;SDS011;63122;52.424;13.458;2023-07-30T03:33:32;9.15;;;5.93;;
41887;SDS011;63122;52.424;13.458;2023-07-30T03:35:27;11.55;;;5.93;;
41887;SDS011;63122;52.424;13.458;2023-07-30T03:37:23;9.60;;;5.95;;
41887;SDS011;63122;52.424;13.458;2023-07-30T03:39:18;7.15;;;6.13;;
41887;SDS011;63122;52.424;13.458;2023-07-30T03:41:16;8.20;;;5.88;;
41887;SDS011;63122;52.424;13.458;2023-07-30T03:43:12;11.60;;;6.15;;
41887;SDS011;63122;52.424;13.458;2023-07-30T03:45:08;8.65;;;6.07;;
41887;SDS011;63122;52.424;13.458;2023-07-30T03:47:04;9.70;;;6.25;;
41887;SDS011;63122;52.424;13.458;2023-07-30T03:49:00;9.25;;;5.60;;
41887;SDS011;63122;52.424;13.458;2023-07-30T03:50:56;7.13;;;6.43;;
41887;SDS011;63122;52.424;13.458;2023-07-30T03:52:51;6.97;;;5.85;;
41887;SDS011;63122;52.424;13.458;2023-07-30T03:54:48;8.45;;;5.88;;
41887;SDS011;63122;52.424;13.458;2023-07-30T03:56:43;8.35;;;6.13;;
41887;SDS011;63122;52.424;13.458;2023-07-30T03:58:39;8.63;;;6.30;;
41887;SDS011;63122;52.424;13.458;2023-07-30T04:00:32;8.73;;;6.80;;
41887;SDS011;63122;52.424;13.458;2023-07-30T04:02:28;7.65;;;5.90;;
41887;SDS011;63122;52.424;13.458;2023-07-30T04:04:24;7.68;;;6.10;;
41887;SDS011;63122;52.424;13.458;2023-07-30T04:06:19;8.35;;;6.13;;
41887;SDS011;63122;52.424;13.458;2023-07-30T04:08:15;8.05;;;6.20;;
41887;SDS011;63122;52.424;13.458;2023-07-30T04:10:11;9.65;;;6.38;;
41887;SDS011;63122;52.424;13.458;2023-07-30T04:12:09;9.35;;;6.63;;
41887;SDS011;63122;52.424;13.458;2023-07-30T04:14:04;8.48;;;6.18;;
41887;SDS011;63122;52.424;13.458;2023-07-30T04:16:01;9.20;;;5.97;;
41887;SDS011;63122;52.424;13.458;2023-07-30T04:17:57;8.50;;;6.63;;
41887;SDS011;63122;52.424;13.458;2023-07-30T04:19:52;16.30;;;6.75;;
41887;SDS011;63122;52.424;13.458;2023-07-30T04:21:47;9.50;;;6.55;;
41887;SDS011;63122;52.424;13.458;2023-07-30T04:23:40;8.05;;;6.20;;
41887;SDS011;63122;52.424;13.458;2023-07-30T04:25:36;8.68;;;6.30;;
41887;SDS011;63122;52.424;13.458;2023-07-30T04:27:31;10.38;;;6.00;;
41887;SDS011;63122;52.424;13.458;2023-07-30T04:29:27;6.88;;;6.18;;
41887;SDS011;63122;52.424;13.458;2023-07-30T04:31:22;8.88;;;5.70;;
41887;SDS011;63122;52.424;13.458;2023-07-30T04:33:18;9.38;;;6.97;;
41887;SDS011;63122;52.424;13.458;2023-07-30T04:35:11;6.15;;;5.57;;
41887;SDS011;63122;52.424;13.458;2023-07-30T04:37:06;7.55;;;6.18;;
41887;SDS011;63122;52.424;13.458;2023-07-30T04:39:02;8.68;;;6.15;;
41887;SDS011;63122;52.424;13.458;2023-07-30T04:40:57;8.27;;;6.20;;
41887;SDS011;63122;52.424;13.458;2023-07-30T04:42:55;15.32;;;6.10;;
41887;SDS011;63122;52.424;13.458;2023-07-30T04:44:51;6.45;;;5.72;;
41887;SDS011;63122;52.424;13.458;2023-07-30T04:46:46;7.55;;;5.60;;
41887;SDS011;63122;52.424;13.458;2023-07-30T04:48:40;7.93;;;5.80;;
41887;SDS011;63122;52.424;13.458;2023-07-30T04:50:35;8.35;;;5.68;;
41887;SDS011;63122;52.424;13.458;2023-07-30T04:52:34;9.93;;;5.63;;
41887;SDS011;63122;52.424;13.458;2023-07-30T04:54:29;8.63;;;5.80;;
41887;SDS011;63122;52.424;13.458;2023-07-30T04:56:25;8.10;;;5.88;;
41887;SDS011;63122;52.424;13.458;2023-07-30T04:58:23;6.93;;;5.88;;
41887;SDS011;63122;52.424;13.458;2023-07-30T05:00:19;9.18;;;5.93;;
41887;SDS011;63122;52.424;13.458;2023-07-30T05:05:04;6.10;;;5.50;;
41887;SDS011;63122;52.424;13.458;2023-07-30T05:07:00;9.60;;;5.07;;
41887;SDS011;63122;52.424;13.458;2023-07-30T05:08:55;6.93;;;5.50;;
41887;SDS011;63122;52.424;13.458;2023-07-30T05:10:51;7.13;;;6.05;;
41887;SDS011;63122;52.424;13.458;2023-07-30T05:12:43;13.38;;;5.15;;
41887;SDS011;63122;52.424;13.458;2023-07-30T05:14:41;10.27;;;5.78;;
41887;SDS011;63122;52.424;13.458;2023-07-30T05:16:36;5.78;;;5.20;;
41887;SDS011;63122;52.424;13.458;2023-07-30T05:18:32;6.22;;;5.63;;
41887;SDS011;63122;52.424;13.458;2023-07-30T05:20:26;6.10;;;5.50;;
41887;SDS011;63122;52.424;13.458;2023-07-30T05:22:21;10.27;;;5.22;;
41887;SDS011;63122;52.424;13.458;2023-07-30T05:24:17;6.40;;;5.43;;
41887;SDS011;63122;52.424;13.458;2023-07-30T05:26:12;7.38;;;4.75;;
41887;SDS011;63122;52.424;13.458;2023-07-30T05:28:07;5.60;;;4.90;;
41887;SDS011;63122;52.424;13.458;2023-07-30T05:30:06;6.80;;;5.07;;
41887;SDS011;63122;52.424;13.458;2023-07-30T05:31:59;6.28;;;4.72;;
41887;SDS011;63122;52.424;13.458;2023-07-30T05:33:55;6.25;;;5.45;;
41887;SDS011;63122;52.424;13.458;2023-07-30T05:35:50;6.28;;;4.97;;
41887;SDS011;63122;52.424;13.458;2023-07-30T05:37:45;8.70;;;5.45;;
41887;SDS011;63122;52.424;13.458;2023-07-30T05:39:40;7.80;;;5.47;;
41887;SDS011;63122;52.424;13.458;2023-07-30T05:41:35;7.18;;;4.90;;
41887;SDS011;63122;52.424;13.458;2023-07-30T05:43:29;5.55;;;4.70;;
41887;SDS011;63122;52.424;13.458;2023-07-30T05:45:26;7.60;;;4.45;;
41887;SDS011;63122;52.424;13.458;2023-07-30T05:47:22;5.78;;;4.93;;
41887;SDS011;63122;52.424;13.458;2023-07-30T05:49:17;5.88;;;4.70;;
41887;SDS011;63122;52.424;13.458;2023-07-30T05:51:13;6.18;;;4.65;;
41887;SDS011;63122;52.424;13.458;2023-07-30T05:53:08;5.57;;;5.07;;
41887;SDS011;63122;52.424;13.458;2023-07-30T05:55:04;5.60;;;4.75;;
41887;SDS011;63122;52.424;13.458;2023-07-30T05:56:59;11.60;;;4.63;;
41887;SDS011;63122;52.424;13.458;2023-07-30T05:58:55;5.50;;;4.60;;
41887;SDS011;63122;52.424;13.458;2023-07-30T06:00:52;6.85;;;4.72;;
41887;SDS011;63122;52.424;13.458;2023-07-30T06:02:48;5.03;;;4.53;;
41887;SDS011;63122;52.424;13.458;2023-07-30T06:04:43;6.72;;;4.50;;
41887;SDS011;63122;52.424;13.458;2023-07-30T06:06:36;5.32;;;4.82;;
41887;SDS011;63122;52.424;13.458;2023-07-30T06:08:31;6.70;;;4.63;;
41887;SDS011;63122;52.424;13.458;2023-07-30T06:10:26;8.75;;;4.40;;
41887;SDS011;63122;52.424;13.458;2023-07-30T06:12:21;6.25;;;4.47;;
41887;SDS011;63122;52.424;13.458;2023-07-30T06:14:16;5.13;;;4.38;;
41887;SDS011;63122;52.424;13.458;2023-07-30T06:16:14;5.18;;;4.38;;
41887;SDS011;63122;52.424;13.458;2023-07-30T06:18:11;6.05;;;4.60;;
41887;SDS011;63122;52.424;13.458;2023-07-30T06:20:07;4.90;;;4.32;;
41887;SDS011;63122;52.424;13.458;2023-07-30T06:22:01;8.73;;;4.30;;
41887;SDS011;63122;52.424;13.458;2023-07-30T06:23:56;7.50;;;4.43;;
41887;SDS011;63122;52.424;13.458;2023-07-30T06:25:51;4.95;;;4.35;;
41887;SDS011;63122;52.424;13.458;2023-07-30T06:27:44;8.23;;;4.47;;
41887;SDS011;63122;52.424;13.458;2023-07-30T06:29:39;11.73;;;4.28;;
41887;SDS011;63122;52.424;13.458;2023-07-30T06:31:37;10.32;;;4.10;;
41887;SDS011;63122;52.424;13.458;2023-07-30T06:33:30;6.40;;;4.28;;
41887;SDS011;63122;52.424;13.458;2023-07-30T06:35:26;4.32;;;3.92;;
41887;SDS011;63122;52.424;13.458;2023-07-30T06:37:21;5.22;;;4.22;;
41887;SDS011;63122;52.424;13.458;2023-07-30T06:39:16;5.35;;;3.90;;
41887;SDS011;63122;52.424;13.458;2023-07-30T06:41:11;8.25;;;3.88;;
41887;SDS011;63122;52.424;13.458;2023-07-30T06:43:06;5.68;;;3.95;;
41887;SDS011;63122;52.424;13.458;2023-07-30T06:45:02;4.32;;;3.80;;
41887;SDS011;63122;52.424;13.458;2023-07-30T06:46:58;6.20;;;4.35;;
41887;SDS011;63122;52.424;13.458;2023-07-30T06:48:53;6.90;;;4.40;;
41887;SDS011;63122;52.424;13.458;2023-07-30T06:50:48;6.22;;;3.97;;
41887;SDS011;63122;52.424;13.458;2023-07-30T06:52:43;5.95;;;4.03;;
41887;SDS011;63122;52.424;13.458;2023-07-30T06:54:36;6.10;;;4.25;;
41887;SDS011;63122;52.424;13.458;2023-07-30T06:56:31;5.25;;;4.35;;
41887;SDS011;63122;52.424;13.458;2023-07-30T06:58:29;4.60;;;3.83;;
41887;SDS011;63122;52.424;13.458;2023-07-30T07:00:24;5.55;;;4.47;;
41887;SDS011;63122;52.424;13.458;2023-07-30T07:02:19;6.38;;;4.22;;
41887;SDS011;63122;52.424;13.458;2023-07-30T07:04:15;5.07;;;4.28;;
41887;SDS011;63122;52.424;13.458;2023-07-30T07:06:10;5.13;;;4.28;;
41887;SDS011;63122;52.424;13.458;2023-07-30T07:08:05;5.85;;;4.20;;
41887;SDS011;63122;52.424;13.458;2023-07-30T07:10:01;5.45;;;4.80;;
41887;SDS011;63122;52.424;13.458;2023-07-30T07:11:56;5.20;;;4.57;;
41887;SDS011;63122;52.424;13.458;2023-07-30T07:13:52;4.90;;;4.32;;
41887;SDS011;63122;52.424;13.458;2023-07-30T07:15:48;8.13;;;4.82;;
41887;SDS011;63122;52.424;13.458;2023-07-30T07:17:44;11.07;;;4.30;;
41887;SDS011;63122;52.424;13.458;2023-07-30T07:19:41;5.57;;;3.90;;
41887;SDS011;63122;52.424;13.458;2023-07-30T07:21:36;6.97;;;3.75;;
41887;SDS011;63122;52.424;13.458;2023-07-30T07:23:39;7.22;;;4.00;;
41887;SDS011;63122;52.424;13.458;2023-07-30T07:25:35;4.60;;;3.80;;
41887;SDS011;63122;52.424;13.458;2023-07-30T07:27:30;4.18;;;3.47;;
41887;SDS011;63122;52.424;13.458;2023-07-30T07:29:25;5.20;;;3.53;;
41887;SDS011;63122;52.424;13.458;2023-07-30T07:31:18;4.00;;;3.60;;
41887;SDS011;63122;52.424;13.458;2023-07-30T07:33:16;9.50;;;4.18;;
41887;SDS011;63122;52.424;13.458;2023-07-30T07:35:09;4.75;;;3.60;;
41887;SDS011;63122;52.424;13.458;2023-07-30T07:37:06;6.13;;;3.50;;
41887;SDS011;63122;52.424;13.458;2023-07-30T07:39:01;7.60;;;3.42;;
41887;SDS011;63122;52.424;13.458;2023-07-30T07:40:54;8.90;;;3.65;;
41887;SDS011;63122;52.424;13.458;2023-07-30T07:42:50;8.23;;;3.63;;
41887;SDS011;63122;52.424;13.458;2023-07-30T07:44:45;3.92;;;3.50;;
41887;SDS011;63122;52.424;13.458;2023-07-30T07:46:41;6.88;;;3.30;;
41887;SDS011;63122;52.424;13.458;2023-07-30T07:48:39;4.30;;;3.55;;
41887;SDS011;63122;52.424;13.458;2023-07-30T07:50:35;5.60;;;3.50;;
41887;SDS011;63122;52.424;13.458;2023-07-30T07:52:31;3.88;;;3.35;;
41887;SDS011;63122;52.424;13.458;2023-07-30T07:54:28;6.22;;;3.42;;
41887;SDS011;63122;52.424;13.458;2023-07-30T07:56:25;6.28;;;3.80;;
41887;SDS011;63122;52.424;13.458;2023-07-30T07:58:21;5.72;;;3.55;;
41887;SDS011;63122;52.424;13.458;2023-07-30T08:00:17;7.13;;;3.45;;
41887;SDS011;63122;52.424;13.458;2023-07-30T08:02:14;4.75;;;3.50;;
41887;SDS011;63122;52.424;13.458;2023-07-30T08:04:13;4.35;;;3.70;;
41887;SDS011;63122;52.424;13.458;2023-07-30T08:06:09;5.90;;;3.58;;
41887;SDS011;63122;52.424;13.458;2023-07-30T08:08:05;7.50;;;3.58;;
41887;SDS011;63122;52.424;13.458;2023-07-30T08:10:01;3.50;;;3.20;;
41887;SDS011;63122;52.424;13.458;2023-07-30T08:11:56;3.95;;;3.30;;
41887;SDS011;63122;52.424;13.458;2023-07-30T08:13:49;3.88;;;2.70;;
41887;SDS011;63122;52.424;13.458;2023-07-30T08:15:45;6.47;;;3.15;;
41887;SDS011;63122;52.424;13.458;2023-07-30T08:17:38;3.83;;;2.92;;
41887;SDS011;63122;52.424;13.458;2023-07-30T08:19:35;6.30;;;2.25;;
41887;SDS011;63122;52.424;13.458;2023-07-30T08:21:34;4.78;;;2.60;;
41887;SDS011;63122;52.424;13.458;2023-07-30T08:23:36;8.10;;;2.70;;
41887;SDS011;63122;52.424;13.458;2023-07-30T08:25:38;4.45;;;2.67;;
41887;SDS011;63122;52.424;13.458;2023-07-30T08:27:31;7.32;;;2.95;;
41887;SDS011;63122;52.424;13.458;2023-07-30T08:29:26;8.68;;;2.22;;
41887;SDS011;63122;52.424;13.458;2023-07-30T08:31:22;9.38;;;2.60;;
41887;SDS011;63122;52.424;13.458;2023-07-30T08:33:17;6.75;;;2.63;;
41887;SDS011;63122;52.424;13.458;2023-07-30T08:35:15;3.75;;;2.53;;
41887;SDS011;63122;52.424;13.458;2023-07-30T08:37:13;4.10;;;2.83;;
41887;SDS011;63122;52.424;13.458;2023-07-30T08:39:09;3.88;;;2.22;;
41887;SDS011;63122;52.424;13.458;2023-07-30T08:41:04;6.50;;;2.80;;
41887;SDS011;63122;52.424;13.458;2023-07-30T08:42:59;6.50;;;2.75;;
41887;SDS011;63122;52.424;13.458;2023-07-30T08:44:57;5.40;;;2.90;;
41887;SDS011;63122;52.424;13.458;2023-07-30T08:46:50;6.05;;;2.88;;
41887;SDS011;63122;52.424;13.458;2023-07-30T08:48:47;5.78;;;2.55;;
41887;SDS011;63122;52.424;13.458;2023-07-30T08:50:45;6.50;;;2.53;;
41887;SDS011;63122;52.424;13.458;2023-07-30T08:52:42;5.28;;;2.90;;
41887;SDS011;63122;52.424;13.458;2023-07-30T08:54:35;3.90;;;2.20;;
41887;SDS011;63122;52.424;13.458;2023-07-30T08:56:32;7.80;;;2.78;;
41887;SDS011;63122;52.424;13.458;2023-07-30T08:58:27;3.50;;;2.50;;
41887;SDS011;63122;52.424;13.458;2023-07-30T09:00:21;5.85;;;2.35;;
41887;SDS011;63122;52.424;13.458;2023-07-30T09:02:21;6.97;;;2.40;;
41887;SDS011;63122;52.424;13.458;2023-07-30T09:04:26;4.78;;;2.10;;
41887;SDS011;63122;52.424;13.458;2023-07-30T09:06:31;5.43;;;2.50;;
41887;SDS011;63122;52.424;13.458;2023-07-30T09:08:27;7.10;;;2.22;;
41887;SDS011;63122;52.424;13.458;2023-07-30T09:10:25;3.10;;;2.17;;
41887;SDS011;63122;52.424;13.458;2023-07-30T09:12:25;4.20;;;2.20;;
41887;SDS011;63122;52.424;13.458;2023-07-30T09:14:19;3.13;;;2.10;;
41887;SDS011;63122;52.424;13.458;2023-07-30T09:16:15;7.47;;;2.53;;
41887;SDS011;63122;52.424;13.458;2023-07-30T09:18:10;7.05;;;2.28;;
41887;SDS011;63122;52.424;13.458;2023-07-30T09:20:06;4.63;;;2.50;;
41887;SDS011;63122;52.424;13.458;2023-07-30T09:22:01;3.33;;;2.28;;
41887;SDS011;63122;52.424;13.458;2023-07-30T09:24:00;3.05;;;2.30;;
41887;SDS011;63122;52.424;13.458;2023-07-30T09:25:58;4.85;;;2.10;;
41887;SDS011;63122;52.424;13.458;2023-07-30T09:27:51;3.55;;;1.75;;
41887;SDS011;63122;52.424;13.458;2023-07-30T09:29:50;6.32;;;2.60;;
41887;SDS011;63122;52.424;13.458;2023-07-30T09:31:47;2.80;;;1.70;;
41887;SDS011;63122;52.424;13.458;2023-07-30T09:33:46;3.90;;;2.15;;
41887;SDS011;63122;52.424;13.458;2023-07-30T09:35:41;3.42;;;2.42;;
41887;SDS011;63122;52.424;13.458;2023-07-30T09:37:42;3.45;;;2.10;;
41887;SDS011;63122;52.424;13.458;2023-07-30T09:39:41;3.83;;;2.05;;
41887;SDS011;63122;52.424;13.458;2023-07-30T09:42:14;3.63;;;1.98;;
41887;SDS011;63122;52.424;13.458;2023-07-30T09:44:10;3.38;;;2.17;;
41887;SDS011;63122;52.424;13.458;2023-07-30T09:46:02;6.30;;;2.30;;
41887;SDS011;63122;52.424;13.458;2023-07-30T09:47:59;3.72;;;2.15;;
41887;SDS011;63122;52.424;13.458;2023-07-30T09:49:54;3.75;;;1.98;;
41887;SDS011;63122;52.424;13.458;2023-07-30T09:51:49;5.38;;;2.72;;
41887;SDS011;63122;52.424;13.458;2023-07-30T09:53:49;4.10;;;1.98;;
41887;SDS011;63122;52.424;13.458;2023-07-30T09:55:44;4.00;;;1.95;;
41887;SDS011;63122;52.424;13.458;2023-07-30T09:57:40;3.47;;;1.90;;
41887;SDS011;63122;52.424;13.458;2023-07-30T09:59:32;3.70;;;2.17;;
41887;SDS011;63122;52.424;13.458;2023-07-30T10:01:28;6.78;;;2.22;;
41887;SDS011;63122;52.424;13.458;2023-07-30T10:03:21;7.03;;;1.90;;
41887;SDS011;63122;52.424;13.458;2023-07-30T10:05:17;5.68;;;2.30;;
41887;SDS011;63122;52.424;13.458;2023-07-30T10:07:14;4.47;;;2.20;;
41887;SDS011;63122;52.424;13.458;2023-07-30T10:09:13;4.70;;;2.25;;
41887;SDS011;63122;52.424;13.458;2023-07-30T10:11:12;5.90;;;2.10;;
41887;SDS011;63122;52.424;13.458;2023-07-30T10:13:07;5.63;;;2.65;;
41887;SDS011;63122;52.424;13.458;2023-07-30T10:15:06;5.15;;;2.08;;
41887;SDS011;63122;52.424;13.458;2023-07-30T10:17:09;3.15;;;1.67;;
41887;SDS011;63122;52.424;13.458;2023-07-30T10:19:06;4.03;;;1.90;;
41887;SDS011;63122;52.424;13.458;2023-07-30T10:21:04;3.05;;;1.60;;
41887;SDS011;63122;52.424;13.458;2023-07-30T10:23:04;8.30;;;2.05;;
41887;SDS011;63122;52.424;13.458;2023-07-30T10:25:06;6.97;;;2.17;;
41887;SDS011;63122;52.424;13.458;2023-07-30T10:27:08;3.47;;;1.80;;
41887;SDS011;63122;52.424;13.458;2023-07-30T10:31:18;3.72;;;2.03;;
41887;SDS011;63122;52.424;13.458;2023-07-30T10:33:11;2.88;;;1.67;;
41887;SDS011;63122;52.424;13.458;2023-07-30T10:35:09;4.30;;;2.20;;
41887;SDS011;63122;52.424;13.458;2023-07-30T10:40:24;2.72;;;1.80;;
41887;SDS011;63122;52.424;13.458;2023-07-30T10:42:20;4.05;;;1.83;;
41887;SDS011;63122;52.424;13.458;2023-07-30T10:44:23;4.40;;;1.83;;
41887;SDS011;63122;52.424;13.458;2023-07-30T10:46:20;6.03;;;2.10;;
41887;SDS011;63122;52.424;13.458;2023-07-30T10:48:17;4.57;;;2.00;;
41887;SDS011;63122;52.424;13.458;2023-07-30T10:50:13;3.50;;;1.80;;
41887;SDS011;63122;52.424;13.458;2023-07-30T10:52:09;4.32;;;2.03;;
41887;SDS011;63122;52.424;13.458;2023-07-30T10:54:10;3.92;;;1.90;;
41887;SDS011;63122;52.424;13.458;2023-07-30T10:56:10;4.90;;;2.00;;
41887;SDS011;63122;52.424;13.458;2023-07-30T10:58:05;3.65;;;1.58;;
41887;SDS011;63122;52.424;13.458;2023-07-30T11:00:02;4.32;;;1.98;;
41887;SDS011;63122;52.424;13.458;2023-07-30T11:01:58;7.80;;;2.20;;
41887;SDS011;63122;52.424;13.458;2023-07-30T11:03:57;6.35;;;2.17;;
41887;SDS011;63122;52.424;13.458;2023-07-30T11:05:55;7.20;;;2.35;;
41887;SDS011;63122;52.424;13.458;2023-07-30T11:07:50;3.92;;;1.85;;
41887;SDS011;63122;52.424;13.458;2023-07-30T11:09:47;4.80;;;1.88;;
41887;SDS011;63122;52.424;13.458;2023-07-30T11:11:57;4.78;;;1.90;;
41887;SDS011;63122;52.424;13.458;2023-07-30T11:13:53;3.05;;;1.15;;
41887;SDS011;63122;52.424;13.458;2023-07-30T11:15:47;4.57;;;1.52;;
41887;SDS011;63122;52.424;13.458;2023-07-30T11:17:43;6.38;;;1.80;;
41887;SDS011;63122;52.424;13.458;2023-07-30T11:19:42;5.93;;;1.67;;
41887;SDS011;63122;52.424;13.458;2023-07-30T11:21:43;4.07;;;1.83;;
41887;SDS011;63122;52.424;13.458;2023-07-30T11:23:43;5.43;;;1.95;;
41887;SDS011;63122;52.424;13.458;2023-07-30T11:25:40;5.18;;;1.83;;
41887;SDS011;63122;52.424;13.458;2023-07-30T11:27:46;4.63;;;1.83;;
41887;SDS011;63122;52.424;13.458;2023-07-30T11:29:42;8.65;;;2.35;;
41887;SDS011;63122;52.424;13.458;2023-07-30T11:31:48;6.72;;;1.90;;
41887;SDS011;63122;52.424;13.458;2023-07-30T11:33:44;5.47;;;2.00;;
41887;SDS011;63122;52.424;13.458;2023-07-30T11:35:40;5.00;;;2.05;;
41887;SDS011;63122;52.424;13.458;2023-07-30T11:37:33;3.67;;;2.13;;